A- A+ FrançaisEnglishEspañol中国

Services sur Internet Soldes sur Internet Des idées de cadeaux Météo Météo aéro

La météo à : Autours de vous Tarbes-Lourdes-PyrénéesLogne-Emerainville AlbertvillePau-Pyrénées

manche à air

La météo aéronautique pour les pilotes, la préparation du vol avec les METAR (METeorological Aerodrome Report, message d'observation des conditions météorologiques pour l'aviation) et Les TAF (Terminal Aerodrome Forecast : message de prévision à court terme des conditions météorologiques pour l'aviation). Et les autres ressources comme les VAC (Visual Approch Chart) et les NOTAM (Notice To Airman) pour préprer les vols.

Aéroport Karlsruhe Baden Baden (Allemagne) / OACI EDSB/ IATA FKB

L'altitude de l'aéroport Karlsruhe Baden Baden est de 124 m = 407 ft. Il est situé à proximité de Baden-Baden (Allemagne). La météo générale à 5 jours est disponible pour Hugelsheim situé à 3.5 km.

METAR de l'aéroport Karlsruhe Baden Baden - EDSB

EDSB 231320Z 02005KT 350V060 CAVOK 08/04 Q0995

Décodage du METAR de l'aéroport Karlsruhe Baden Baden (DE)

METAR émis par EDSB le samedi 23 novembre 2019 à 13:20 heure TU. Attention ce METAR est obsolète car il a été émis il y a 23 heure et 8 minutes.

La visibilité est de supérieure à 10 km = supérieure à 6.2 sm.

La température est de 8°C = 46 °F et le point rosée est de 4°C = 39 °F . Ce qui correspond à 76% d'humidité relative.

Le QNH est de 995 hPa = 29.38 inHg

Vent de 5 kt = 9 km/h, orienté à 20°.

Pas de nuages.

TAF de l'aéroport Karlsruhe Baden Baden - EDSB

EDSB 231100Z 2312/2412 03006KT CAVOK BECMG 2318/2321 VRB03KT TEMPO 2321/2412 0400 FG VV001

EDSB 231100Z 2312/2412 03006KT visibilité supérieure à 10km, aucun nuage à une hauteur inférieure à 5000 ft ou sous l'altitude minimale de secteur et aucun cumulonimbus ou cumulus bourgeonnant, quelle que soit leur altitude devenant 2318/2321 VRB03KT temporairement 2321/2412 0400 brouillard VV001

Aéroport à proximité de Karlsruhe Baden Baden

Météo générale à 5 jours à Hugelsheim (3.5 km)Aéroport Baden-Baden Oos (8 km)Aéroport Haguenau (19 km)Aéroport Schweighofen (29 km)Aéroport Kehl Sundheim (30 km)Aéroport Strasbourg-Neuhof (33 km)Aéroport Offenburg (38 km)

VAC de l'aéroport Karlsruhe Baden Baden - EDSB

La carte d'approche à vue (VAC Visual Approah Chart) est fournie sans aucune garantie de son actualité. Le pilote est le seul responsable de la vérification de sa validité avant de l'utiliser opérationnellement pour préparer un vol ou l'utiliser lors de sa navigation.

VAC de EDSB

Vue aérienne de l'aéroport Karlsruhe Baden Baden

NOTAM de l'aéroport Karlsruhe Baden Baden

Les NOTAM sont fournis sans aucune garantie de leur actualité. Le pilote est le seul responsable de la vérification de sa validité avant de l'utiliser opérationnellement pour préparer un vol ou l'utiliser lors de sa navigation.

Pas de NOTAM

Sources des données